createdAt,value
2019-06-07T00:02:18.964Z,14.55
2019-06-07T00:04:48.758Z,11.48
2019-06-07T00:07:21.817Z,13.03
2019-06-07T00:09:49.820Z,14.18
2019-06-07T00:12:21.592Z,12.88
2019-06-07T00:14:50.775Z,14.78
2019-06-07T00:17:20.586Z,15.70
2019-06-07T00:19:50.550Z,14.40
2019-06-07T00:22:32.202Z,12.78
2019-06-07T00:24:51.460Z,13.40
2019-06-07T00:27:22.626Z,12.45
2019-06-07T00:29:53.544Z,14.33
2019-06-07T00:32:23.152Z,11.73
2019-06-07T00:34:52.759Z,14.70
2019-06-07T00:37:25.131Z,13.43
2019-06-07T00:40:13.417Z,14.68
2019-06-07T00:42:25.065Z,10.75
2019-06-07T00:44:54.683Z,14.25
2019-06-07T00:47:25.715Z,15.18
2019-06-07T00:49:55.527Z,14.40
2019-06-07T00:53:12.820Z,14.30
2019-06-07T00:54:56.365Z,13.55
2019-06-07T00:57:25.992Z,12.33
2019-06-07T00:59:55.802Z,11.68
2019-06-07T01:02:28.982Z,15.10
2019-06-07T01:04:56.778Z,14.23
2019-06-07T01:07:26.472Z,12.03
2019-06-07T01:09:56.078Z,13.68
2019-06-07T01:12:27.023Z,14.47
2019-06-07T01:14:57.210Z,12.03
2019-06-07T01:17:43.872Z,11.43
2019-06-07T01:22:30.472Z,12.13
2019-06-07T01:25:00.178Z,11.60
2019-06-07T01:27:29.888Z,12.78
2019-06-07T01:29:59.596Z,11.30
2019-06-07T01:32:31.786Z,14.63
2019-06-07T01:35:00.554Z,15.55
2019-06-07T01:37:30.519Z,13.70
2019-06-07T01:40:00.282Z,11.50
2019-06-07T01:42:31.068Z,13.00
2019-06-07T01:45:02.251Z,12.07
2019-06-07T01:47:32.484Z,11.20
2019-06-07T01:50:02.096Z,12.73
2019-06-07T01:52:31.804Z,11.38
2019-06-07T01:55:01.521Z,16.52
2019-06-07T01:57:45.636Z,11.75
2019-06-07T02:00:02.678Z,13.70
2019-06-07T02:02:33.733Z,15.88
2019-06-07T02:05:04.354Z,15.55
2019-06-07T02:07:34.063Z,14.33
2019-06-07T02:10:05.821Z,13.53
2019-06-07T02:12:42.899Z,11.75
2019-06-07T02:15:08.344Z,11.43
2019-06-07T02:17:38.641Z,13.38
2019-06-07T02:20:08.961Z,11.30
2019-06-07T02:22:38.675Z,13.25
2019-06-07T02:27:40.962Z,12.90
2019-06-07T02:32:42.978Z,17.23
2019-06-07T02:35:12.668Z,12.82
2019-06-07T02:37:42.258Z,12.53
2019-06-07T02:40:12.531Z,15.95
2019-06-07T02:42:42.972Z,14.00
2019-06-07T02:45:13.119Z,13.58
2019-06-07T02:47:44.591Z,14.68
2019-06-07T02:50:15.754Z,12.43
2019-06-07T02:52:45.539Z,16.12
2019-06-07T02:55:16.178Z,14.63
2019-06-07T02:57:45.781Z,13.18
2019-06-07T03:01:00.753Z,12.45
2019-06-07T03:03:06.602Z,13.32
2019-06-07T03:05:40.765Z,12.78
2019-06-07T03:08:09.907Z,19.60
2019-06-07T03:10:42.046Z,15.03
2019-06-07T03:13:13.946Z,13.30
2019-06-07T03:15:50.274Z,15.08
2019-06-07T03:18:36.558Z,12.30
2019-06-07T03:21:08.879Z,14.10
2019-06-07T03:23:39.969Z,17.00
2019-06-07T03:26:10.657Z,16.85
2019-06-07T03:28:40.468Z,15.65
2019-06-07T03:31:10.078Z,15.25
2019-06-07T03:33:44.465Z,16.00
2019-06-07T03:36:23.343Z,14.45
2019-06-07T03:38:42.176Z,14.70
2019-06-07T03:41:12.808Z,16.90
2019-06-07T03:43:42.521Z,14.85
2019-06-07T03:46:12.229Z,13.45
2019-06-07T03:48:41.948Z,13.58
2019-06-07T03:51:24.276Z,12.15
2019-06-07T03:53:42.896Z,14.47
2019-06-07T03:56:13.154Z,18.80
2019-06-07T03:58:49.526Z,28.12
2019-06-07T04:01:14.692Z,15.28
2019-06-07T04:03:51.438Z,17.10
2019-06-07T04:06:15.714Z,14.23
2019-06-07T04:08:45.562Z,16.82
2019-06-07T04:11:15.170Z,13.18
2019-06-07T04:13:44.937Z,16.00
2019-06-07T04:16:14.693Z,16.35
2019-06-07T04:18:44.700Z,17.05
2019-06-07T04:21:14.321Z,16.87
2019-06-07T04:23:45.658Z,18.02
2019-06-07T04:26:15.277Z,18.75
2019-06-07T04:31:16.335Z,17.62
2019-06-07T04:33:46.051Z,19.42
2019-06-07T04:36:15.742Z,15.98
2019-06-07T04:38:46.682Z,19.02
2019-06-07T04:41:18.567Z,16.57
2019-06-07T04:43:49.177Z,18.20
2019-06-07T04:46:21.765Z,14.25
2019-06-07T04:48:52.056Z,17.85
2019-06-07T04:51:24.164Z,18.80
2019-06-07T04:53:53.865Z,21.70
2019-06-07T04:56:23.475Z,21.48
2019-06-07T04:58:53.082Z,17.57
2019-06-07T05:01:27.792Z,17.40
2019-06-07T05:03:54.038Z,17.85
2019-06-07T05:06:23.651Z,16.52
2019-06-07T05:08:54.381Z,18.65
2019-06-07T05:11:23.987Z,18.50
2019-06-07T05:13:53.598Z,21.27
2019-06-07T05:16:26.175Z,17.77
2019-06-07T05:18:55.786Z,16.10
2019-06-07T05:21:25.391Z,23.47
2019-06-07T05:24:06.520Z,18.07
2019-06-07T05:26:26.246Z,13.32
2019-06-07T05:28:55.854Z,15.30
2019-06-07T05:31:25.567Z,20.97
2019-06-07T05:33:55.275Z,23.60
2019-06-07T05:36:24.880Z,13.83
2019-06-07T05:38:54.702Z,29.72
2019-06-07T05:41:24.405Z,17.73
2019-06-07T05:44:11.701Z,17.62
2019-06-07T05:46:25.263Z,12.60
2019-06-07T05:48:55.893Z,13.50
2019-06-07T05:51:25.500Z,14.43
2019-06-07T05:53:55.108Z,13.10
2019-06-07T05:56:24.821Z,11.00
2019-06-07T05:58:55.040Z,14.35
2019-06-07T06:01:42.988Z,11.20
2019-06-07T06:03:55.997Z,13.72
2019-06-07T06:06:25.707Z,12.98
2019-06-07T06:09:12.941Z,14.00
2019-06-07T06:11:43.320Z,16.93
2019-06-07T06:14:07.575Z,15.25
2019-06-07T06:16:30.283Z,14.10
2019-06-07T06:18:59.891Z,16.90
2019-06-07T06:21:29.614Z,13.45
2019-06-07T06:23:59.209Z,12.85
2019-06-07T06:26:28.818Z,18.87
2019-06-07T06:28:58.426Z,13.32
2019-06-07T06:31:28.188Z,11.93
2019-06-07T06:33:57.846Z,30.48
2019-06-07T06:36:27.454Z,18.65
2019-06-07T06:38:57.065Z,15.32
2019-06-07T06:41:26.670Z,51.92
2019-06-07T06:43:56.277Z,44.53
2019-06-07T06:46:39.100Z,34.63
2019-06-07T06:48:57.140Z,40.70
2019-06-07T06:51:26.740Z,74.45
2019-06-07T06:53:56.655Z,68.78
2019-06-07T06:56:26.264Z,52.17
2019-06-07T07:01:27.221Z,28.40
2019-06-07T07:04:10.658Z,27.60
2019-06-07T07:06:28.502Z,49.35
2019-06-07T08:27:25.824Z,23.98
2019-06-07T08:30:03.771Z,20.40
2019-06-07T08:32:17.965Z,25.35
2019-06-07T08:34:51.809Z,24.87
2019-06-07T08:37:18.821Z,25.10
2019-06-07T08:39:49.779Z,21.23
2019-06-07T08:42:25.284Z,24.77
2019-06-07T08:44:53.600Z,21.42
2019-06-07T08:47:22.402Z,20.40
2019-06-07T08:49:55.980Z,22.60
2019-06-07T08:52:23.638Z,22.85
2019-06-07T08:54:54.876Z,27.00
2019-06-07T08:57:24.696Z,26.12
2019-06-07T08:59:56.621Z,29.00
2019-06-07T09:02:25.940Z,23.47
2019-06-07T09:04:58.606Z,23.55
2019-06-07T09:07:27.017Z,23.12
2019-06-07T09:10:03.453Z,21.60
2019-06-07T09:12:27.872Z,23.47
2019-06-07T09:15:12.248Z,21.25
2019-06-07T09:17:28.833Z,20.00
2019-06-07T09:20:05.669Z,20.32
2019-06-07T09:22:29.722Z,21.33
2019-06-07T09:25:02.827Z,23.57
2019-06-07T09:27:30.643Z,18.52
2019-06-07T09:30:05.727Z,18.10
2019-06-07T09:32:33.032Z,18.70
2019-06-07T09:35:10.523Z,17.02
2019-06-07T09:40:21.843Z,21.70
2019-06-07T09:42:38.118Z,20.72
2019-06-07T09:45:11.681Z,16.32
2019-06-07T09:47:39.488Z,16.02
2019-06-07T09:50:12.168Z,14.90
2019-06-07T09:52:57.734Z,18.42
2019-06-07T09:55:23.130Z,13.72
2019-06-07T09:57:43.244Z,19.12
2019-06-07T10:00:40.057Z,15.25
2019-06-07T10:02:47.791Z,15.72
2019-06-07T10:05:17.600Z,15.10
2019-06-07T10:08:02.481Z,19.48
2019-06-07T10:12:49.903Z,16.55
2019-06-07T10:15:19.828Z,18.80
2019-06-07T10:17:49.427Z,16.20
2019-06-07T10:20:19.299Z,17.17
2019-06-07T10:22:48.949Z,14.90
2019-06-07T10:25:18.658Z,13.55
2019-06-07T10:27:49.497Z,17.00
2019-06-07T10:30:21.601Z,13.30
2019-06-07T10:32:52.409Z,14.78
2019-06-07T10:35:22.212Z,14.18
2019-06-07T10:37:52.944Z,17.48
2019-06-07T10:40:22.655Z,12.63
2019-06-07T10:42:52.268Z,16.50
2019-06-07T10:45:21.973Z,17.82
2019-06-07T10:47:51.583Z,15.63
2019-06-07T10:50:21.963Z,13.22
2019-06-07T10:52:51.618Z,12.73
2019-06-07T10:55:21.430Z,14.63
2019-06-07T10:57:51.143Z,15.90
2019-06-07T11:00:21.353Z,12.68
2019-06-07T11:02:54.292Z,13.65
2019-06-07T11:05:22.322Z,13.60
2019-06-07T11:07:52.064Z,13.35
2019-06-07T11:10:21.842Z,13.18
2019-06-07T11:12:51.455Z,18.77
2019-06-07T11:15:22.595Z,11.18
2019-06-07T11:17:52.311Z,11.73
2019-06-07T11:20:22.119Z,11.38
2019-06-07T11:22:51.724Z,11.25
2019-06-07T11:25:21.538Z,14.68
2019-06-07T11:27:51.250Z,17.87
2019-06-07T11:30:21.270Z,14.25
2019-06-07T11:32:50.943Z,15.18
2019-06-07T11:35:20.781Z,12.98
2019-06-07T11:37:50.501Z,11.03
2019-06-07T11:40:34.947Z,12.23
2019-06-07T11:42:52.855Z,12.05
2019-06-07T11:45:22.808Z,16.20
2019-06-07T11:47:52.414Z,12.15
2019-06-07T11:50:22.123Z,12.75
2019-06-07T11:52:51.731Z,14.53
2019-06-07T11:55:21.625Z,13.05
2019-06-07T11:57:51.254Z,14.53
2019-06-07T12:00:21.571Z,14.33
2019-06-07T12:02:51.291Z,12.28
2019-06-07T12:05:21.004Z,11.57
2019-06-07T12:07:50.615Z,14.10
2019-06-07T12:10:22.772Z,14.68
2019-06-07T12:12:51.769Z,11.68
2019-06-07T12:15:21.484Z,13.53
2019-06-07T12:17:51.088Z,11.33
2019-06-07T12:20:22.231Z,14.53
2019-06-07T12:22:52.765Z,15.00
2019-06-07T12:25:25.053Z,11.85
2019-06-07T12:27:53.731Z,10.88
2019-06-07T12:30:27.670Z,10.45
2019-06-07T12:32:54.675Z,9.53
2019-06-07T12:35:24.489Z,11.80
2019-06-07T12:37:54.080Z,14.38
2019-06-07T12:40:30.620Z,8.08
2019-06-07T12:42:55.053Z,11.45
2019-06-07T12:45:42.851Z,14.45
2019-06-07T12:47:56.119Z,8.30
2019-06-07T12:50:41.891Z,7.03
2019-06-07T12:52:57.172Z,12.07
2019-06-07T12:55:26.782Z,10.78
2019-06-07T12:57:56.913Z,9.58
2019-06-07T13:00:26.617Z,10.43
2019-06-07T13:02:56.220Z,9.83
2019-06-07T13:05:25.929Z,10.05
2019-06-07T13:07:55.523Z,11.90
2019-06-07T13:10:25.252Z,8.23
2019-06-07T13:12:54.957Z,10.43
2019-06-07T13:15:26.079Z,7.10
2019-06-07T13:17:55.917Z,8.65
2019-06-07T13:20:25.626Z,12.35
2019-06-07T13:22:55.338Z,6.65
2019-06-07T13:25:41.174Z,10.40
2019-06-07T13:27:56.804Z,11.73
2019-06-07T13:30:26.872Z,16.02
2019-06-07T13:32:56.534Z,7.20
2019-06-07T13:35:29.367Z,10.68
2019-06-07T13:37:59.711Z,9.65
2019-06-07T13:40:29.043Z,10.08
2019-06-07T13:42:58.662Z,8.88
2019-06-07T13:45:28.362Z,10.43
2019-06-07T13:47:57.986Z,10.32
2019-06-07T13:50:28.269Z,10.70
2019-06-07T13:52:58.684Z,8.45
2019-06-07T13:55:28.429Z,12.88
2019-06-07T13:57:58.038Z,12.93
2019-06-07T14:00:28.488Z,12.37
2019-06-07T14:02:58.264Z,11.40
2019-06-07T14:05:29.047Z,14.18
2019-06-07T14:07:58.825Z,10.95
2019-06-07T14:10:29.556Z,10.48
2019-06-07T14:12:59.378Z,8.80
2019-06-07T14:15:32.629Z,10.08
2019-06-07T14:18:00.230Z,12.50
2019-06-07T14:20:34.105Z,11.80
2019-06-07T14:23:01.287Z,14.13
2019-06-07T14:25:31.438Z,12.13
2019-06-07T14:28:01.219Z,11.93
2019-06-07T14:30:32.504Z,8.88
2019-06-07T14:33:02.421Z,9.63
2019-06-07T14:35:33.684Z,8.13
2019-06-07T14:38:04.672Z,7.85
2019-06-07T14:40:34.279Z,9.43
2019-06-07T14:43:03.986Z,12.63
2019-06-07T14:45:34.348Z,7.67
2019-06-07T14:48:04.226Z,11.63
2019-06-07T14:50:34.494Z,10.78
2019-06-07T14:53:04.472Z,11.35
2019-06-07T14:55:35.195Z,8.25
2019-06-07T14:58:05.218Z,8.35
2019-06-07T15:00:42.715Z,14.68
2019-06-07T15:03:12.525Z,11.18
2019-06-07T15:05:42.343Z,10.40
2019-06-07T15:08:12.151Z,7.25
2019-06-07T15:10:41.877Z,8.80
2019-06-07T15:13:11.570Z,11.73
2019-06-07T15:15:41.180Z,12.18
2019-06-07T15:18:10.890Z,10.35
2019-06-07T15:20:40.499Z,7.65
2019-06-07T15:23:10.406Z,6.70
2019-06-07T15:26:28.661Z,7.83
2019-06-07T15:28:58.269Z,9.40
2019-06-07T15:31:27.928Z,7.08
2019-06-07T15:33:57.591Z,6.75
2019-06-07T15:36:28.237Z,8.30
2019-06-07T15:38:58.036Z,10.68
2019-06-07T15:41:28.861Z,9.40
2019-06-07T15:43:58.784Z,11.80
2019-06-07T15:46:29.445Z,6.30
2019-06-07T15:48:59.228Z,10.60
2019-06-07T15:51:30.550Z,10.30
2019-06-07T15:54:00.186Z,10.30
2019-06-07T15:56:30.480Z,9.35
2019-06-07T15:59:00.224Z,10.75
2019-06-07T16:01:31.101Z,9.10
2019-06-07T16:04:00.871Z,8.58
2019-06-07T16:06:31.971Z,8.75
2019-06-07T16:09:01.932Z,7.28
2019-06-07T16:11:34.570Z,12.20
2019-06-07T16:14:06.373Z,9.83
2019-06-07T16:16:37.061Z,12.53
2019-06-07T16:19:06.818Z,11.70
2019-06-07T16:21:37.353Z,10.60
2019-06-07T16:24:07.262Z,7.72
2019-06-07T16:26:38.182Z,10.63
2019-06-07T16:29:07.897Z,14.98
2019-06-07T16:31:38.730Z,11.38
2019-06-07T16:34:08.559Z,14.35
2019-06-07T16:36:38.412Z,13.40
2019-06-07T16:39:09.255Z,11.57
2019-06-07T16:41:40.408Z,10.82
2019-06-07T16:44:10.279Z,12.58
2019-06-07T16:46:40.621Z,11.88
2019-06-07T16:49:10.609Z,12.00
2019-06-07T16:51:41.268Z,11.25
2019-06-07T16:54:11.263Z,11.38
2019-06-07T16:56:44.361Z,15.15
2019-06-07T16:59:12.216Z,10.95
2019-06-07T17:01:43.074Z,13.88
2019-06-07T17:04:12.868Z,14.43
2019-06-07T17:06:43.685Z,12.35
2019-06-07T17:09:13.516Z,12.65
2019-06-07T17:11:44.243Z,11.35
2019-06-07T17:14:14.063Z,11.03
2019-06-07T17:16:44.434Z,11.68
2019-06-07T17:19:14.916Z,9.05
2019-06-07T17:21:45.424Z,12.40
2019-06-07T17:24:15.258Z,13.75
2019-06-07T17:26:45.524Z,13.20
2019-06-07T17:29:15.190Z,18.27
2019-06-07T17:31:46.297Z,11.90
2019-06-07T17:34:16.149Z,15.50
2019-06-07T17:36:46.421Z,16.52
2019-06-07T17:39:16.188Z,11.43
2019-06-07T17:41:58.635Z,8.90
2019-06-07T17:44:16.942Z,12.58
2019-06-07T17:46:47.607Z,10.82
2019-06-07T17:49:17.483Z,12.58
2019-06-07T17:51:48.031Z,10.95
2019-06-07T17:54:17.826Z,12.28
2019-06-07T17:56:48.277Z,9.63
2019-06-07T17:59:17.971Z,19.07
2019-06-07T18:02:07.101Z,11.63
2019-06-07T18:04:18.919Z,8.30
2019-06-07T18:06:49.765Z,12.90
2019-06-07T18:09:20.230Z,13.48
2019-06-07T18:11:50.042Z,14.23
2019-06-07T18:14:20.019Z,9.88
2019-06-07T18:16:50.577Z,17.77
2019-06-07T18:19:20.357Z,12.53
2019-06-07T18:21:55.260Z,12.07
2019-06-07T18:24:21.316Z,11.65
2019-06-07T18:26:50.944Z,10.48
2019-06-07T18:29:20.668Z,13.98
2019-06-07T18:31:50.757Z,12.37
2019-06-07T18:34:20.366Z,14.87
2019-06-07T18:36:51.061Z,11.15
2019-06-07T18:39:20.807Z,13.83
2019-06-07T18:41:51.825Z,12.50
2019-06-07T18:44:22.079Z,12.37
2019-06-07T18:46:52.253Z,10.32
2019-06-07T18:49:22.011Z,12.95
2019-06-07T18:52:09.324Z,11.78
2019-06-07T18:54:38.939Z,8.90
2019-06-07T18:57:08.633Z,14.47
2019-06-07T18:59:38.442Z,14.63
2019-06-07T19:02:08.373Z,13.15
2019-06-07T19:04:38.017Z,17.23
2019-06-07T19:07:07.592Z,18.30
2019-06-07T19:09:37.198Z,15.60
2019-06-07T19:12:06.905Z,17.67
2019-06-07T19:14:37.475Z,13.70
2019-06-07T19:17:08.398Z,13.53
2019-06-07T19:19:37.983Z,13.03
2019-06-07T19:22:07.796Z,10.58
2019-06-07T19:24:37.404Z,9.40
2019-06-07T19:27:07.119Z,10.68
2019-06-07T19:29:36.823Z,13.28
2019-06-07T19:32:06.534Z,10.90
2019-06-07T19:34:36.449Z,12.45
2019-06-07T19:37:06.160Z,12.05
2019-06-07T19:39:35.773Z,14.40
2019-06-07T19:42:05.585Z,25.25
2019-06-07T19:44:35.308Z,22.37
2019-06-07T19:47:05.005Z,13.30
2019-06-07T19:49:34.612Z,15.32
2019-06-07T19:52:04.324Z,13.32
2019-06-07T19:54:33.940Z,17.45
2019-06-07T19:57:03.723Z,14.18
2019-06-07T19:59:33.556Z,12.40
2019-06-07T20:02:04.191Z,13.68
2019-06-07T20:04:34.106Z,19.80
2019-06-07T20:07:05.587Z,15.85
2019-06-07T20:09:35.061Z,16.55
2019-06-07T20:12:05.180Z,13.15
2019-06-07T20:14:34.892Z,12.63
2019-06-07T20:17:05.731Z,12.23
2019-06-07T20:19:35.537Z,13.43
2019-06-07T20:22:05.604Z,14.03
2019-06-07T20:24:38.050Z,13.32
2019-06-07T20:27:06.825Z,10.68
2019-06-07T20:29:36.531Z,13.93
2019-06-07T20:32:06.245Z,17.52
2019-06-07T20:34:35.950Z,14.75
2019-06-07T20:37:07.439Z,9.28
2019-06-07T20:39:36.907Z,10.00
2019-06-07T20:42:07.817Z,21.15
2019-06-07T20:44:37.764Z,16.02
2019-06-07T20:47:08.406Z,14.35
2019-06-07T20:49:38.216Z,17.80
2019-06-07T20:52:08.612Z,16.40
2019-06-07T20:54:38.551Z,12.18
2019-06-07T20:57:08.906Z,13.53
2019-06-07T20:59:38.584Z,13.03
2019-06-07T21:02:09.566Z,12.45
2019-06-07T21:04:39.336Z,11.25
2019-06-07T21:07:10.174Z,8.68
2019-06-07T21:09:39.987Z,10.90
2019-06-07T21:12:09.931Z,14.28
2019-06-07T21:14:39.855Z,12.75
2019-06-07T21:17:10.348Z,13.85
2019-06-07T21:19:40.274Z,16.45
2019-06-07T21:22:11.043Z,13.98
2019-06-07T21:24:41.014Z,13.43
2019-06-07T21:27:11.401Z,15.60
2019-06-07T21:29:41.154Z,14.70
2019-06-07T21:32:11.772Z,18.30
2019-06-07T21:34:41.699Z,14.30
2019-06-07T21:37:12.145Z,10.68
2019-06-07T21:39:41.939Z,13.25
2019-06-07T21:42:12.346Z,12.18
2019-06-07T21:44:42.282Z,13.18
2019-06-07T21:47:12.741Z,13.60
2019-06-07T21:49:42.623Z,12.63
2019-06-07T21:52:12.912Z,14.20
2019-06-07T21:54:42.762Z,12.98
2019-06-07T21:57:13.212Z,18.32
2019-06-07T21:59:43.014Z,15.38
2019-06-07T22:02:13.735Z,18.05
2019-06-07T22:04:44.161Z,16.77
2019-06-07T22:07:13.789Z,15.58
2019-06-07T22:09:43.380Z,17.55
2019-06-07T22:12:14.156Z,14.07
2019-06-07T22:14:44.037Z,15.65
2019-06-07T22:17:14.517Z,14.98
2019-06-07T22:19:44.475Z,16.67
2019-06-07T22:22:14.905Z,15.18
2019-06-07T22:24:44.814Z,14.50
2019-06-07T22:27:15.578Z,13.00
2019-06-07T22:29:45.567Z,14.73
2019-06-07T22:32:15.276Z,15.35
2019-06-07T22:34:44.885Z,15.70
2019-06-07T22:37:16.450Z,15.58
2019-06-07T22:39:45.739Z,16.80
2019-06-07T22:42:15.350Z,19.52
2019-06-07T22:44:44.958Z,15.23
2019-06-07T22:47:15.941Z,16.57
2019-06-07T22:49:46.836Z,18.37
2019-06-07T22:52:17.311Z,18.30
2019-06-07T22:54:47.692Z,14.28
2019-06-07T22:57:18.948Z,15.30
2019-06-07T22:59:48.541Z,15.80
2019-06-07T23:02:18.850Z,23.65
2019-06-07T23:04:48.678Z,16.93
2019-06-07T23:07:19.238Z,16.37
2019-06-07T23:09:49.125Z,17.40
2019-06-07T23:12:19.572Z,18.25
2019-06-07T23:14:49.370Z,13.85
2019-06-07T23:17:20.625Z,16.97
2019-06-07T23:19:50.219Z,20.15
2019-06-07T23:22:20.159Z,17.27
2019-06-07T23:24:49.932Z,15.90
2019-06-07T23:27:20.806Z,18.65
2019-06-07T23:29:50.599Z,17.73
2019-06-07T23:32:21.544Z,14.95
2019-06-07T23:34:51.354Z,22.40
2019-06-07T23:37:21.304Z,17.52
2019-06-07T23:39:51.185Z,15.93
2019-06-07T23:42:21.838Z,16.97
2019-06-07T23:44:51.623Z,15.80
2019-06-07T23:47:22.400Z,17.50
2019-06-07T23:49:52.272Z,16.02
2019-06-07T23:52:22.133Z,19.37
2019-06-07T23:57:57.144Z,13.30
